<?xml version="1.0" encoding="UTF-8"?>
<gpx version="1.1" creator="GPSBabel - http://www.gpsbabel.org" xmlns="http://www.topografix.com/GPX/1/1">
  <metadata>
    <time>2018-12-01T03:03:01.009Z</time>
    <bounds minlat="46.528084000" minlon="14.037623000" maxlat="46.547180000" maxlon="14.069973000"/>
  </metadata>
  <trk>
    <name>&quot;Rasland&quot; - Rundweg</name>
    <trkseg>
      <trkpt lat="46.532738000" lon="14.064914000">
        <ele>538.000000</ele>
        <time>2012-05-01T08:00:00Z</time>
      </trkpt>
      <trkpt lat="46.532452000" lon="14.064831000">
        <ele>539.000000</ele>
        <time>2012-05-01T08:00:33Z</time>
      </trkpt>
      <trkpt lat="46.531715000" lon="14.064769000">
        <ele>545.000000</ele>
        <time>2012-05-01T08:01:06Z</time>
      </trkpt>
      <trkpt lat="46.530792000" lon="14.064424000">
        <ele>551.000000</ele>
        <time>2012-05-01T08:01:39Z</time>
      </trkpt>
      <trkpt lat="46.530277000" lon="14.064390000">
        <ele>553.000000</ele>
        <time>2012-05-01T08:02:12Z</time>
      </trkpt>
      <trkpt lat="46.530277000" lon="14.064110000">
        <ele>552.000000</ele>
        <time>2012-05-01T08:02:45Z</time>
      </trkpt>
      <trkpt lat="46.530212000" lon="14.064032000">
        <ele>552.000000</ele>
        <time>2012-05-01T08:03:18Z</time>
      </trkpt>
      <trkpt lat="46.529755000" lon="14.064018000">
        <ele>555.000000</ele>
        <time>2012-05-01T08:03:51Z</time>
      </trkpt>
      <trkpt lat="46.529530000" lon="14.063906000">
        <ele>555.000000</ele>
        <time>2012-05-01T08:04:24Z</time>
      </trkpt>
      <trkpt lat="46.529411000" lon="14.063639000">
        <ele>556.000000</ele>
        <time>2012-05-01T08:04:57Z</time>
      </trkpt>
      <trkpt lat="46.529251000" lon="14.062862000">
        <ele>558.000000</ele>
        <time>2012-05-01T08:05:30Z</time>
      </trkpt>
      <trkpt lat="46.529060000" lon="14.062435000">
        <ele>561.000000</ele>
        <time>2012-05-01T08:06:03Z</time>
      </trkpt>
      <trkpt lat="46.528809000" lon="14.062084000">
        <ele>563.000000</ele>
        <time>2012-05-01T08:06:36Z</time>
      </trkpt>
      <trkpt lat="46.528484000" lon="14.061848000">
        <ele>565.000000</ele>
        <time>2012-05-01T08:07:09Z</time>
      </trkpt>
      <trkpt lat="46.528275000" lon="14.061496000">
        <ele>570.000000</ele>
        <time>2012-05-01T08:07:42Z</time>
      </trkpt>
      <trkpt lat="46.528084000" lon="14.060627000">
        <ele>573.000000</ele>
        <time>2012-05-01T08:08:15Z</time>
      </trkpt>
      <trkpt lat="46.528088000" lon="14.060510000">
        <ele>574.000000</ele>
        <time>2012-05-01T08:08:48Z</time>
      </trkpt>
      <trkpt lat="46.528469000" lon="14.059665000">
        <ele>574.000000</ele>
        <time>2012-05-01T08:09:21Z</time>
      </trkpt>
      <trkpt lat="46.528603000" lon="14.059113000">
        <ele>578.000000</ele>
        <time>2012-05-01T08:09:54Z</time>
      </trkpt>
      <trkpt lat="46.528694000" lon="14.058973000">
        <ele>578.000000</ele>
        <time>2012-05-01T08:10:27Z</time>
      </trkpt>
      <trkpt lat="46.529102000" lon="14.057107000">
        <ele>583.000000</ele>
        <time>2012-05-01T08:11:00Z</time>
      </trkpt>
      <trkpt lat="46.529537000" lon="14.055886000">
        <ele>586.000000</ele>
        <time>2012-05-01T08:11:33Z</time>
      </trkpt>
      <trkpt lat="46.529953000" lon="14.055139000">
        <ele>582.000000</ele>
        <time>2012-05-01T08:12:06Z</time>
      </trkpt>
      <trkpt lat="46.530392000" lon="14.054040000">
        <ele>577.000000</ele>
        <time>2012-05-01T08:12:39Z</time>
      </trkpt>
      <trkpt lat="46.530704000" lon="14.053620000">
        <ele>567.000000</ele>
        <time>2012-05-01T08:13:12Z</time>
      </trkpt>
      <trkpt lat="46.530895000" lon="14.053228000">
        <ele>563.000000</ele>
        <time>2012-05-01T08:13:45Z</time>
      </trkpt>
      <trkpt lat="46.531502000" lon="14.053492000">
        <ele>560.000000</ele>
        <time>2012-05-01T08:14:18Z</time>
      </trkpt>
      <trkpt lat="46.532242000" lon="14.052765000">
        <ele>552.000000</ele>
        <time>2012-05-01T08:14:51Z</time>
      </trkpt>
      <trkpt lat="46.532478000" lon="14.052595000">
        <ele>551.000000</ele>
        <time>2012-05-01T08:15:24Z</time>
      </trkpt>
      <trkpt lat="46.532703000" lon="14.052552000">
        <ele>548.000000</ele>
        <time>2012-05-01T08:15:57Z</time>
      </trkpt>
      <trkpt lat="46.532425000" lon="14.052188000">
        <ele>553.000000</ele>
        <time>2012-05-01T08:16:30Z</time>
      </trkpt>
      <trkpt lat="46.532326000" lon="14.051828000">
        <ele>554.000000</ele>
        <time>2012-05-01T08:17:03Z</time>
      </trkpt>
      <trkpt lat="46.532261000" lon="14.050461000">
        <ele>559.000000</ele>
        <time>2012-05-01T08:17:36Z</time>
      </trkpt>
      <trkpt lat="46.532310000" lon="14.049143000">
        <ele>560.000000</ele>
        <time>2012-05-01T08:18:09Z</time>
      </trkpt>
      <trkpt lat="46.532249000" lon="14.048660000">
        <ele>558.000000</ele>
        <time>2012-05-01T08:18:42Z</time>
      </trkpt>
      <trkpt lat="46.531593000" lon="14.047410000">
        <ele>571.000000</ele>
        <time>2012-05-01T08:19:15Z</time>
      </trkpt>
      <trkpt lat="46.531284000" lon="14.047105000">
        <ele>575.000000</ele>
        <time>2012-05-01T08:19:48Z</time>
      </trkpt>
      <trkpt lat="46.530441000" lon="14.046782000">
        <ele>584.000000</ele>
        <time>2012-05-01T08:20:21Z</time>
      </trkpt>
      <trkpt lat="46.530312000" lon="14.046643000">
        <ele>586.000000</ele>
        <time>2012-05-01T08:20:54Z</time>
      </trkpt>
      <trkpt lat="46.530319000" lon="14.046139000">
        <ele>585.000000</ele>
        <time>2012-05-01T08:21:27Z</time>
      </trkpt>
      <trkpt lat="46.529900000" lon="14.045651000">
        <ele>591.000000</ele>
        <time>2012-05-01T08:22:00Z</time>
      </trkpt>
      <trkpt lat="46.529755000" lon="14.044752000">
        <ele>595.000000</ele>
        <time>2012-05-01T08:22:33Z</time>
      </trkpt>
      <trkpt lat="46.529907000" lon="14.044209000">
        <ele>595.000000</ele>
        <time>2012-05-01T08:23:06Z</time>
      </trkpt>
      <trkpt lat="46.529903000" lon="14.043784000">
        <ele>596.000000</ele>
        <time>2012-05-01T08:23:39Z</time>
      </trkpt>
      <trkpt lat="46.530014000" lon="14.043311000">
        <ele>594.000000</ele>
        <time>2012-05-01T08:24:12Z</time>
      </trkpt>
      <trkpt lat="46.529938000" lon="14.041266000">
        <ele>596.000000</ele>
        <time>2012-05-01T08:24:45Z</time>
      </trkpt>
      <trkpt lat="46.529823000" lon="14.040799000">
        <ele>597.000000</ele>
        <time>2012-05-01T08:25:18Z</time>
      </trkpt>
      <trkpt lat="46.529430000" lon="14.040074000">
        <ele>604.000000</ele>
        <time>2012-05-01T08:25:51Z</time>
      </trkpt>
      <trkpt lat="46.529255000" lon="14.039197000">
        <ele>604.000000</ele>
        <time>2012-05-01T08:26:24Z</time>
      </trkpt>
      <trkpt lat="46.529549000" lon="14.038936000">
        <ele>597.000000</ele>
        <time>2012-05-01T08:26:57Z</time>
      </trkpt>
      <trkpt lat="46.529697000" lon="14.038925000">
        <ele>595.000000</ele>
        <time>2012-05-01T08:27:30Z</time>
      </trkpt>
      <trkpt lat="46.529884000" lon="14.039047000">
        <ele>587.000000</ele>
        <time>2012-05-01T08:28:03Z</time>
      </trkpt>
      <trkpt lat="46.530018000" lon="14.038781000">
        <ele>585.000000</ele>
        <time>2012-05-01T08:28:36Z</time>
      </trkpt>
      <trkpt lat="46.530346000" lon="14.038560000">
        <ele>577.000000</ele>
        <time>2012-05-01T08:29:09Z</time>
      </trkpt>
      <trkpt lat="46.530479000" lon="14.038537000">
        <ele>574.000000</ele>
        <time>2012-05-01T08:29:42Z</time>
      </trkpt>
      <trkpt lat="46.530605000" lon="14.038642000">
        <ele>571.000000</ele>
        <time>2012-05-01T08:30:15Z</time>
      </trkpt>
      <trkpt lat="46.530731000" lon="14.038155000">
        <ele>567.000000</ele>
        <time>2012-05-01T08:30:48Z</time>
      </trkpt>
      <trkpt lat="46.530907000" lon="14.038197000">
        <ele>567.000000</ele>
        <time>2012-05-01T08:31:21Z</time>
      </trkpt>
      <trkpt lat="46.531235000" lon="14.038405000">
        <ele>562.000000</ele>
        <time>2012-05-01T08:31:54Z</time>
      </trkpt>
      <trkpt lat="46.531361000" lon="14.037829000">
        <ele>562.000000</ele>
        <time>2012-05-01T08:32:27Z</time>
      </trkpt>
      <trkpt lat="46.531696000" lon="14.037623000">
        <ele>567.000000</ele>
        <time>2012-05-01T08:33:00Z</time>
      </trkpt>
      <trkpt lat="46.531918000" lon="14.037712000">
        <ele>569.000000</ele>
        <time>2012-05-01T08:33:33Z</time>
      </trkpt>
      <trkpt lat="46.532104000" lon="14.037914000">
        <ele>574.000000</ele>
        <time>2012-05-01T08:34:06Z</time>
      </trkpt>
      <trkpt lat="46.532440000" lon="14.038696000">
        <ele>571.000000</ele>
        <time>2012-05-01T08:34:39Z</time>
      </trkpt>
      <trkpt lat="46.532562000" lon="14.038835000">
        <ele>573.000000</ele>
        <time>2012-05-01T08:35:12Z</time>
      </trkpt>
      <trkpt lat="46.532715000" lon="14.038894000">
        <ele>573.000000</ele>
        <time>2012-05-01T08:35:45Z</time>
      </trkpt>
      <trkpt lat="46.532864000" lon="14.038864000">
        <ele>579.000000</ele>
        <time>2012-05-01T08:36:18Z</time>
      </trkpt>
      <trkpt lat="46.533154000" lon="14.038493000">
        <ele>584.000000</ele>
        <time>2012-05-01T08:36:51Z</time>
      </trkpt>
      <trkpt lat="46.533257000" lon="14.038496000">
        <ele>587.000000</ele>
        <time>2012-05-01T08:37:24Z</time>
      </trkpt>
      <trkpt lat="46.534348000" lon="14.039996000">
        <ele>587.000000</ele>
        <time>2012-05-01T08:37:57Z</time>
      </trkpt>
      <trkpt lat="46.534664000" lon="14.040750000">
        <ele>584.000000</ele>
        <time>2012-05-01T08:38:30Z</time>
      </trkpt>
      <trkpt lat="46.535000000" lon="14.042031000">
        <ele>584.000000</ele>
        <time>2012-05-01T08:39:03Z</time>
      </trkpt>
      <trkpt lat="46.535480000" lon="14.042913000">
        <ele>590.000000</ele>
        <time>2012-05-01T08:39:36Z</time>
      </trkpt>
      <trkpt lat="46.535721000" lon="14.043064000">
        <ele>591.000000</ele>
        <time>2012-05-01T08:40:09Z</time>
      </trkpt>
      <trkpt lat="46.535809000" lon="14.043607000">
        <ele>591.000000</ele>
        <time>2012-05-01T08:40:42Z</time>
      </trkpt>
      <trkpt lat="46.535992000" lon="14.043973000">
        <ele>584.000000</ele>
        <time>2012-05-01T08:41:15Z</time>
      </trkpt>
      <trkpt lat="46.536266000" lon="14.044254000">
        <ele>577.000000</ele>
        <time>2012-05-01T08:41:48Z</time>
      </trkpt>
      <trkpt lat="46.536407000" lon="14.044266000">
        <ele>575.000000</ele>
        <time>2012-05-01T08:42:21Z</time>
      </trkpt>
      <trkpt lat="46.536739000" lon="14.043845000">
        <ele>574.000000</ele>
        <time>2012-05-01T08:42:54Z</time>
      </trkpt>
      <trkpt lat="46.537239000" lon="14.043927000">
        <ele>569.000000</ele>
        <time>2012-05-01T08:43:27Z</time>
      </trkpt>
      <trkpt lat="46.537464000" lon="14.043775000">
        <ele>571.000000</ele>
        <time>2012-05-01T08:44:00Z</time>
      </trkpt>
      <trkpt lat="46.537567000" lon="14.043519000">
        <ele>573.000000</ele>
        <time>2012-05-01T08:44:33Z</time>
      </trkpt>
      <trkpt lat="46.537704000" lon="14.042793000">
        <ele>575.000000</ele>
        <time>2012-05-01T08:45:06Z</time>
      </trkpt>
      <trkpt lat="46.537598000" lon="14.042320000">
        <ele>579.000000</ele>
        <time>2012-05-01T08:45:39Z</time>
      </trkpt>
      <trkpt lat="46.537643000" lon="14.042179000">
        <ele>576.000000</ele>
        <time>2012-05-01T08:46:12Z</time>
      </trkpt>
      <trkpt lat="46.537823000" lon="14.042019000">
        <ele>575.000000</ele>
        <time>2012-05-01T08:46:45Z</time>
      </trkpt>
      <trkpt lat="46.537846000" lon="14.041533000">
        <ele>579.000000</ele>
        <time>2012-05-01T08:47:18Z</time>
      </trkpt>
      <trkpt lat="46.538002000" lon="14.041485000">
        <ele>580.000000</ele>
        <time>2012-05-01T08:47:51Z</time>
      </trkpt>
      <trkpt lat="46.538586000" lon="14.040661000">
        <ele>593.000000</ele>
        <time>2012-05-01T08:48:24Z</time>
      </trkpt>
      <trkpt lat="46.538998000" lon="14.039655000">
        <ele>591.000000</ele>
        <time>2012-05-01T08:48:57Z</time>
      </trkpt>
      <trkpt lat="46.539116000" lon="14.039524000">
        <ele>591.000000</ele>
        <time>2012-05-01T08:49:30Z</time>
      </trkpt>
      <trkpt lat="46.539623000" lon="14.039219000">
        <ele>593.000000</ele>
        <time>2012-05-01T08:50:03Z</time>
      </trkpt>
      <trkpt lat="46.540401000" lon="14.038899000">
        <ele>596.000000</ele>
        <time>2012-05-01T08:50:36Z</time>
      </trkpt>
      <trkpt lat="46.540634000" lon="14.038503000">
        <ele>596.000000</ele>
        <time>2012-05-01T08:51:09Z</time>
      </trkpt>
      <trkpt lat="46.540840000" lon="14.038960000">
        <ele>599.000000</ele>
        <time>2012-05-01T08:51:42Z</time>
      </trkpt>
      <trkpt lat="46.541023000" lon="14.039795000">
        <ele>601.000000</ele>
        <time>2012-05-01T08:52:15Z</time>
      </trkpt>
      <trkpt lat="46.541145000" lon="14.039917000">
        <ele>602.000000</ele>
        <time>2012-05-01T08:52:48Z</time>
      </trkpt>
      <trkpt lat="46.541271000" lon="14.039940000">
        <ele>602.000000</ele>
        <time>2012-05-01T08:53:21Z</time>
      </trkpt>
      <trkpt lat="46.541286000" lon="14.040031000">
        <ele>602.000000</ele>
        <time>2012-05-01T08:53:54Z</time>
      </trkpt>
      <trkpt lat="46.541077000" lon="14.040517000">
        <ele>601.000000</ele>
        <time>2012-05-01T08:54:27Z</time>
      </trkpt>
      <trkpt lat="46.541100000" lon="14.040621000">
        <ele>601.000000</ele>
        <time>2012-05-01T08:55:00Z</time>
      </trkpt>
      <trkpt lat="46.541466000" lon="14.040466000">
        <ele>601.000000</ele>
        <time>2012-05-01T08:55:33Z</time>
      </trkpt>
      <trkpt lat="46.542152000" lon="14.040806000">
        <ele>600.000000</ele>
        <time>2012-05-01T08:56:06Z</time>
      </trkpt>
      <trkpt lat="46.542538000" lon="14.040660000">
        <ele>599.000000</ele>
        <time>2012-05-01T08:56:39Z</time>
      </trkpt>
      <trkpt lat="46.542763000" lon="14.040766000">
        <ele>598.000000</ele>
        <time>2012-05-01T08:57:12Z</time>
      </trkpt>
      <trkpt lat="46.542847000" lon="14.040747000">
        <ele>596.000000</ele>
        <time>2012-05-01T08:57:45Z</time>
      </trkpt>
      <trkpt lat="46.543129000" lon="14.040386000">
        <ele>595.000000</ele>
        <time>2012-05-01T08:58:18Z</time>
      </trkpt>
      <trkpt lat="46.543533000" lon="14.040172000">
        <ele>590.000000</ele>
        <time>2012-05-01T08:58:51Z</time>
      </trkpt>
      <trkpt lat="46.543755000" lon="14.040171000">
        <ele>589.000000</ele>
        <time>2012-05-01T08:59:24Z</time>
      </trkpt>
      <trkpt lat="46.544273000" lon="14.040444000">
        <ele>590.000000</ele>
        <time>2012-05-01T08:59:57Z</time>
      </trkpt>
      <trkpt lat="46.544315000" lon="14.040519000">
        <ele>592.000000</ele>
        <time>2012-05-01T09:00:30Z</time>
      </trkpt>
      <trkpt lat="46.544296000" lon="14.041025000">
        <ele>588.000000</ele>
        <time>2012-05-01T09:01:03Z</time>
      </trkpt>
      <trkpt lat="46.544109000" lon="14.042089000">
        <ele>583.000000</ele>
        <time>2012-05-01T09:01:36Z</time>
      </trkpt>
      <trkpt lat="46.544128000" lon="14.042490000">
        <ele>579.000000</ele>
        <time>2012-05-01T09:02:09Z</time>
      </trkpt>
      <trkpt lat="46.544312000" lon="14.043168000">
        <ele>576.000000</ele>
        <time>2012-05-01T09:02:42Z</time>
      </trkpt>
      <trkpt lat="46.544434000" lon="14.044431000">
        <ele>566.000000</ele>
        <time>2012-05-01T09:03:15Z</time>
      </trkpt>
      <trkpt lat="46.544662000" lon="14.045481000">
        <ele>553.000000</ele>
        <time>2012-05-01T09:03:48Z</time>
      </trkpt>
      <trkpt lat="46.544777000" lon="14.045778000">
        <ele>550.000000</ele>
        <time>2012-05-01T09:04:21Z</time>
      </trkpt>
      <trkpt lat="46.544849000" lon="14.045822000">
        <ele>549.000000</ele>
        <time>2012-05-01T09:04:54Z</time>
      </trkpt>
      <trkpt lat="46.544922000" lon="14.045736000">
        <ele>547.000000</ele>
        <time>2012-05-01T09:05:27Z</time>
      </trkpt>
      <trkpt lat="46.544998000" lon="14.045789000">
        <ele>548.000000</ele>
        <time>2012-05-01T09:06:00Z</time>
      </trkpt>
      <trkpt lat="46.544930000" lon="14.047034000">
        <ele>543.000000</ele>
        <time>2012-05-01T09:06:33Z</time>
      </trkpt>
      <trkpt lat="46.544941000" lon="14.048642000">
        <ele>525.000000</ele>
        <time>2012-05-01T09:07:06Z</time>
      </trkpt>
      <trkpt lat="46.545101000" lon="14.048895000">
        <ele>519.000000</ele>
        <time>2012-05-01T09:07:39Z</time>
      </trkpt>
      <trkpt lat="46.545418000" lon="14.049023000">
        <ele>510.000000</ele>
        <time>2012-05-01T09:08:12Z</time>
      </trkpt>
      <trkpt lat="46.545734000" lon="14.049392000">
        <ele>512.000000</ele>
        <time>2012-05-01T09:08:45Z</time>
      </trkpt>
      <trkpt lat="46.546021000" lon="14.049489000">
        <ele>508.000000</ele>
        <time>2012-05-01T09:09:18Z</time>
      </trkpt>
      <trkpt lat="46.546028000" lon="14.049803000">
        <ele>509.000000</ele>
        <time>2012-05-01T09:09:51Z</time>
      </trkpt>
      <trkpt lat="46.545849000" lon="14.051041000">
        <ele>508.000000</ele>
        <time>2012-05-01T09:10:24Z</time>
      </trkpt>
      <trkpt lat="46.545616000" lon="14.052103000">
        <ele>501.000000</ele>
        <time>2012-05-01T09:10:57Z</time>
      </trkpt>
      <trkpt lat="46.545593000" lon="14.053260000">
        <ele>492.000000</ele>
        <time>2012-05-01T09:11:30Z</time>
      </trkpt>
      <trkpt lat="46.545742000" lon="14.053699000">
        <ele>489.000000</ele>
        <time>2012-05-01T09:12:03Z</time>
      </trkpt>
      <trkpt lat="46.545963000" lon="14.053901000">
        <ele>488.000000</ele>
        <time>2012-05-01T09:12:36Z</time>
      </trkpt>
      <trkpt lat="46.546360000" lon="14.054148000">
        <ele>486.000000</ele>
        <time>2012-05-01T09:13:09Z</time>
      </trkpt>
      <trkpt lat="46.546661000" lon="14.054146000">
        <ele>485.000000</ele>
        <time>2012-05-01T09:13:42Z</time>
      </trkpt>
      <trkpt lat="46.547180000" lon="14.054528000">
        <ele>484.000000</ele>
        <time>2012-05-01T09:14:15Z</time>
      </trkpt>
      <trkpt lat="46.546791000" lon="14.056719000">
        <ele>492.000000</ele>
        <time>2012-05-01T09:14:48Z</time>
      </trkpt>
      <trkpt lat="46.546669000" lon="14.057939000">
        <ele>494.000000</ele>
        <time>2012-05-01T09:15:21Z</time>
      </trkpt>
      <trkpt lat="46.546181000" lon="14.058592000">
        <ele>497.000000</ele>
        <time>2012-05-01T09:15:54Z</time>
      </trkpt>
      <trkpt lat="46.544865000" lon="14.060631000">
        <ele>505.000000</ele>
        <time>2012-05-01T09:16:27Z</time>
      </trkpt>
      <trkpt lat="46.543575000" lon="14.062051000">
        <ele>510.000000</ele>
        <time>2012-05-01T09:17:00Z</time>
      </trkpt>
      <trkpt lat="46.543285000" lon="14.062225000">
        <ele>510.000000</ele>
        <time>2012-05-01T09:17:33Z</time>
      </trkpt>
      <trkpt lat="46.543320000" lon="14.062384000">
        <ele>510.000000</ele>
        <time>2012-05-01T09:18:06Z</time>
      </trkpt>
      <trkpt lat="46.543709000" lon="14.062818000">
        <ele>508.000000</ele>
        <time>2012-05-01T09:18:39Z</time>
      </trkpt>
      <trkpt lat="46.544609000" lon="14.064161000">
        <ele>503.000000</ele>
        <time>2012-05-01T09:19:12Z</time>
      </trkpt>
      <trkpt lat="46.545319000" lon="14.065660000">
        <ele>500.000000</ele>
        <time>2012-05-01T09:19:45Z</time>
      </trkpt>
      <trkpt lat="46.545677000" lon="14.066079000">
        <ele>498.000000</ele>
        <time>2012-05-01T09:20:18Z</time>
      </trkpt>
      <trkpt lat="46.546375000" lon="14.066722000">
        <ele>495.000000</ele>
        <time>2012-05-01T09:20:51Z</time>
      </trkpt>
      <trkpt lat="46.546360000" lon="14.067325000">
        <ele>492.000000</ele>
        <time>2012-05-01T09:21:24Z</time>
      </trkpt>
      <trkpt lat="46.546261000" lon="14.067743000">
        <ele>489.000000</ele>
        <time>2012-05-01T09:21:57Z</time>
      </trkpt>
      <trkpt lat="46.545906000" lon="14.068416000">
        <ele>483.000000</ele>
        <time>2012-05-01T09:22:30Z</time>
      </trkpt>
      <trkpt lat="46.545444000" lon="14.068920000">
        <ele>479.000000</ele>
        <time>2012-05-01T09:23:03Z</time>
      </trkpt>
      <trkpt lat="46.545029000" lon="14.069232000">
        <ele>478.000000</ele>
        <time>2012-05-01T09:23:36Z</time>
      </trkpt>
      <trkpt lat="46.544613000" lon="14.069403000">
        <ele>480.000000</ele>
        <time>2012-05-01T09:24:09Z</time>
      </trkpt>
      <trkpt lat="46.544571000" lon="14.069619000">
        <ele>482.000000</ele>
        <time>2012-05-01T09:24:42Z</time>
      </trkpt>
      <trkpt lat="46.544773000" lon="14.069973000">
        <ele>479.000000</ele>
        <time>2012-05-01T09:25:15Z</time>
      </trkpt>
      <trkpt lat="46.544815000" lon="14.069879000">
        <ele>481.000000</ele>
        <time>2012-05-01T09:25:48Z</time>
      </trkpt>
      <trkpt lat="46.544670000" lon="14.069506000">
        <ele>480.000000</ele>
        <time>2012-05-01T09:26:21Z</time>
      </trkpt>
      <trkpt lat="46.544670000" lon="14.069248000">
        <ele>479.000000</ele>
        <time>2012-05-01T09:26:54Z</time>
      </trkpt>
      <trkpt lat="46.544479000" lon="14.068929000">
        <ele>479.000000</ele>
        <time>2012-05-01T09:27:27Z</time>
      </trkpt>
      <trkpt lat="46.544254000" lon="14.068744000">
        <ele>481.000000</ele>
        <time>2012-05-01T09:28:00Z</time>
      </trkpt>
      <trkpt lat="46.543652000" lon="14.068602000">
        <ele>483.000000</ele>
        <time>2012-05-01T09:28:33Z</time>
      </trkpt>
      <trkpt lat="46.543564000" lon="14.068100000">
        <ele>483.000000</ele>
        <time>2012-05-01T09:29:06Z</time>
      </trkpt>
      <trkpt lat="46.543308000" lon="14.067646000">
        <ele>483.000000</ele>
        <time>2012-05-01T09:29:39Z</time>
      </trkpt>
      <trkpt lat="46.542801000" lon="14.067002000">
        <ele>484.000000</ele>
        <time>2012-05-01T09:30:12Z</time>
      </trkpt>
      <trkpt lat="46.542278000" lon="14.066768000">
        <ele>486.000000</ele>
        <time>2012-05-01T09:30:45Z</time>
      </trkpt>
      <trkpt lat="46.541904000" lon="14.066517000">
        <ele>488.000000</ele>
        <time>2012-05-01T09:31:18Z</time>
      </trkpt>
      <trkpt lat="46.541702000" lon="14.066241000">
        <ele>489.000000</ele>
        <time>2012-05-01T09:31:51Z</time>
      </trkpt>
      <trkpt lat="46.541580000" lon="14.065885000">
        <ele>489.000000</ele>
        <time>2012-05-01T09:32:24Z</time>
      </trkpt>
      <trkpt lat="46.541084000" lon="14.065751000">
        <ele>493.000000</ele>
        <time>2012-05-01T09:32:57Z</time>
      </trkpt>
      <trkpt lat="46.540855000" lon="14.065481000">
        <ele>494.000000</ele>
        <time>2012-05-01T09:33:30Z</time>
      </trkpt>
      <trkpt lat="46.540043000" lon="14.063933000">
        <ele>500.000000</ele>
        <time>2012-05-01T09:34:03Z</time>
      </trkpt>
      <trkpt lat="46.539623000" lon="14.063780000">
        <ele>505.000000</ele>
        <time>2012-05-01T09:34:36Z</time>
      </trkpt>
      <trkpt lat="46.539162000" lon="14.063079000">
        <ele>505.000000</ele>
        <time>2012-05-01T09:35:09Z</time>
      </trkpt>
      <trkpt lat="46.539001000" lon="14.062699000">
        <ele>502.000000</ele>
        <time>2012-05-01T09:35:42Z</time>
      </trkpt>
      <trkpt lat="46.538715000" lon="14.062321000">
        <ele>501.000000</ele>
        <time>2012-05-01T09:36:15Z</time>
      </trkpt>
      <trkpt lat="46.538429000" lon="14.062163000">
        <ele>502.000000</ele>
        <time>2012-05-01T09:36:48Z</time>
      </trkpt>
      <trkpt lat="46.538219000" lon="14.062210000">
        <ele>505.000000</ele>
        <time>2012-05-01T09:37:21Z</time>
      </trkpt>
      <trkpt lat="46.537724000" lon="14.062650000">
        <ele>510.000000</ele>
        <time>2012-05-01T09:37:54Z</time>
      </trkpt>
      <trkpt lat="46.537579000" lon="14.062621000">
        <ele>509.000000</ele>
        <time>2012-05-01T09:38:27Z</time>
      </trkpt>
      <trkpt lat="46.537430000" lon="14.062429000">
        <ele>509.000000</ele>
        <time>2012-05-01T09:39:00Z</time>
      </trkpt>
      <trkpt lat="46.537331000" lon="14.061956000">
        <ele>510.000000</ele>
        <time>2012-05-01T09:39:33Z</time>
      </trkpt>
      <trkpt lat="46.537434000" lon="14.061310000">
        <ele>508.000000</ele>
        <time>2012-05-01T09:40:06Z</time>
      </trkpt>
      <trkpt lat="46.537258000" lon="14.061107000">
        <ele>508.000000</ele>
        <time>2012-05-01T09:40:39Z</time>
      </trkpt>
      <trkpt lat="46.537239000" lon="14.060924000">
        <ele>509.000000</ele>
        <time>2012-05-01T09:41:12Z</time>
      </trkpt>
      <trkpt lat="46.536938000" lon="14.060797000">
        <ele>512.000000</ele>
        <time>2012-05-01T09:41:45Z</time>
      </trkpt>
      <trkpt lat="46.536163000" lon="14.060783000">
        <ele>522.000000</ele>
        <time>2012-05-01T09:42:18Z</time>
      </trkpt>
      <trkpt lat="46.535709000" lon="14.060614000">
        <ele>526.000000</ele>
        <time>2012-05-01T09:42:51Z</time>
      </trkpt>
      <trkpt lat="46.535007000" lon="14.060987000">
        <ele>531.000000</ele>
        <time>2012-05-01T09:43:24Z</time>
      </trkpt>
      <trkpt lat="46.534260000" lon="14.061160000">
        <ele>532.000000</ele>
        <time>2012-05-01T09:43:57Z</time>
      </trkpt>
      <trkpt lat="46.533405000" lon="14.062396000">
        <ele>531.000000</ele>
        <time>2012-05-01T09:44:30Z</time>
      </trkpt>
      <trkpt lat="46.532848000" lon="14.063396000">
        <ele>539.000000</ele>
        <time>2012-05-01T09:45:03Z</time>
      </trkpt>
      <trkpt lat="46.532764000" lon="14.063962000">
        <ele>537.000000</ele>
        <time>2012-05-01T09:45:36Z</time>
      </trkpt>
      <trkpt lat="46.532742000" lon="14.064913000">
        <ele>538.000000</ele>
        <time>2012-05-01T09:46:09Z</time>
      </trkpt>
    </trkseg>
  </trk>
</gpx>
